首页
METAR-TAF:

METAR-TAF

机场 :

霍奎厄姆, 华盛顿, 美国

纬度: 46-58-16N, 经度: 123-55-12W, 海拔: 4米

当前天气观测

该预报发布于18分钟前的22:23 UTC
风速10节,风向
温度 10°C
湿度 93%
气压 1012 hPa
能見度: 16.1公里
少量云层高于1500英尺
多云层高于2600英尺
阴天层高于4500英尺
小雨

METAR: KHQM 112223Z AUTO 19010KT 10SM -RA FEW015 BKN026 OVC045 10/09 A2989 RMK AO2 P0002 T01000089

时间: 14:41 (22:41 UTC)

预报

该预报发布于3小时和42分钟前的18:59 UTC
预报有效从11日的 19点(UTC)到 12日的 18点(UTC)
风速10节,风向
能見度: 4.8公里
阴天层高于2000英尺
小雨
从 11日的 2200点(UTC)
风速15节,风向南转南东,有时为25节阵风
能見度: 3.2公里
阴天层高于1500英尺
雨, 轻雾
从 12日的 0500点(UTC)
风速12节,风向西南,有时为22节阵风
能見度: 10公里
散云层高于800英尺
多云层高于1500英尺
阴天层高于3000英尺
小阵雨
从 12日的 1200点(UTC)
风速12节,风向西南,有时为22节阵风
能見度: 10公里
散云层高于1500英尺
多云层高于3500英尺
附近有阵雨

TAF: KHQM 111859Z 1119/1218 10010KT 3SM -RA OVC020 FM112200 15015G25KT 2SM RA BR OVC015 FM120500 22012G22KT P6SM -SHRA SCT008 BKN015 OVC030 FM121200 22012G22KT P6SM VCSH SCT015 BKN035

超过4000个机场的气象观测和天气预报(METAR&TAF报告)。

可查询的气象台以黄色和红色小点在地图上表示。

将鼠标移到小点上方,可查看气象台名称。

然后点击查看天气观测和预报。

如需切换地图:点击带黑十字的绿色按钮放大地图;点击带横线的绿色按钮缩小地图;或者点击绿色箭头查看邻近地区的地图。


METAR-TAF: